Buritirama, Brazil
Current Conditions -  °F | °C
As of 10:00 PM on Tuesday 27 Jan 2015 (Local Time) from SBPL Reporting Station
Few Clouds Few Clouds  
Wind Chill: 82°   Ceiling: Unl
Heat Index: 83°   Visibility: 6mi
Dew Point: 61°   Wind: 3mph
Humidity: 48%   Direction: 120°ESE
Pressure: 29.91"   Gusts: NA
Location:  10.73°S, 43.65°W
Report Text: SBPL 280100Z 12003KT 9999 FEW023 28/16 Q1013
Loading
Personal Weather Stations






























Interactive Weather Map New forecast layout! Learn more

10-Day Weather Forecast

Advertisements
Track Severe Weather on mobile